Time;durP1;ratioP1;P1;durP2;ratioP2;P2;SDS_P1;SDS_P2;PMS_P1;PMS_P2;Temp;Humidity;BMP_temperature;BMP_pressure;BME280_temperature;BME280_humidity;BME280_pressure;Samples;Min_cycle;Max_cycle;Signal;HPM_P1;HPM_P2
2024/01/13 00:01:16;;;;;;;22.90;10.90;;;;;;;-2.45;56.85;99166.81;105762;1258;96616;-73
2024/01/13 00:03:56;;;;;;;20.70;10.00;;;;;;;-2.46;56.58;99171.36;105881;1256;96693;-73
2024/01/13 00:06:24;;;;;;;16.80;8.20;;;;;;;-2.44;56.98;99164.19;105408;1256;109595;-72
2024/01/13 00:08:52;;;;;;;25.70;10.80;;;;;;;-2.41;57.89;99159.63;105444;1254;97989;-73
2024/01/13 00:11:20;;;;;;;23.30;10.30;;;;;;;-2.42;57.82;99145.74;105537;1264;107328;-71
2024/01/13 00:13:48;;;;;;;26.30;12.10;;;;;;;-2.43;57.81;99149.06;107037;1256;96687;-73
2024/01/13 00:16:16;;;;;;;27.20;11.80;;;;;;;-2.43;57.95;99154.61;106075;1253;96590;-73
2024/01/13 00:18:44;;;;;;;24.00;10.10;;;;;;;-2.42;57.45;99152.52;105483;1256;110437;-73
2024/01/13 00:21:12;;;;;;;22.00;9.80;;;;;;;-2.40;58.12;99143.11;107840;1253;96540;-71
2024/01/13 00:23:40;;;;;;;23.20;11.40;;;;;;;-2.38;58.20;99149.67;105381;1253;107707;-72
2024/01/13 00:26:08;;;;;;;18.10;8.60;;;;;;;-2.38;58.20;99152.64;105758;1254;96582;-72
2024/01/13 00:28:35;;;;;;;31.60;12.20;;;;;;;-2.37;58.66;99149.67;105447;1254;96636;-74
2024/01/13 00:31:04;;;;;;;27.90;11.10;;;;;;;-2.37;57.85;99149.66;105958;1253;109967;-72
2024/01/13 00:33:33;;;;;;;32.20;14.50;;;;;;;-2.36;58.45;99147.55;107656;1254;96593;-73
2024/01/13 00:36:02;;;;;;;30.80;12.40;;;;;;;-2.35;58.34;99146.32;108467;1250;107659;-71
2024/01/13 00:38:30;;;;;;;24.10;11.20;;;;;;;-2.34;59.10;99134.66;105891;1255;96672;-74
2024/01/13 00:41:05;;;;;;;23.40;11.20;;;;;;;-2.35;58.08;99140.75;108595;1250;94861;-71
2024/01/13 00:43:36;;;;;;;22.00;11.00;;;;;;;-2.31;59.07;99142.60;107566;1257;109008;-73
2024/01/13 00:46:04;;;;;;;29.20;12.10;;;;;;;-2.30;59.52;99131.13;105510;1256;97514;-70
2024/01/13 00:48:35;;;;;;;22.10;11.20;;;;;;;-2.30;59.48;99130.77;105616;1254;107780;-73
2024/01/13 00:51:11;;;;;;;26.30;12.60;;;;;;;-2.30;59.07;99139.45;105697;1255;96689;-71
2024/01/13 00:53:42;;;;;;;24.30;11.30;;;;;;;-2.30;59.03;99138.74;105746;1254;96604;-74
2024/01/13 00:56:11;;;;;;;29.80;13.60;;;;;;;-2.29;59.26;99133.35;105976;1251;109357;-71
2024/01/13 00:58:39;;;;;;;25.00;11.70;;;;;;;-2.29;59.10;99139.08;107640;1253;96539;-72
2024/01/13 01:01:13;;;;;;;26.70;12.40;;;;;;;-2.29;59.13;99133.36;107681;1256;107525;-73
2024/01/13 01:03:45;;;;;;;24.90;11.60;;;;;;;-2.29;59.42;99128.66;105825;1257;97934;-73
2024/01/13 01:06:15;;;;;;;19.50;9.80;;;;;;;-2.29;58.89;99133.54;105999;1256;96588;-72
2024/01/13 01:08:43;;;;;;;27.70;12.20;;;;;;;-2.30;59.28;99133.02;108492;1250;109473;-72
2024/01/13 01:11:11;;;;;;;24.60;11.60;;;;;;;-2.30;59.12;99127.11;106678;1254;96680;-72
2024/01/13 01:13:40;;;;;;;33.00;13.40;;;;;;;-2.31;58.91;99130.95;106517;1253;106191;-73
2024/01/13 01:16:09;;;;;;;29.40;12.00;;;;;;;-2.33;59.01;99124.91;106227;1254;97553;-73
2024/01/13 01:18:37;;;;;;;23.30;11.10;;;;;;;-2.33;59.33;99125.61;106228;1254;96674;-73
2024/01/13 01:21:14;;;;;;;25.10;12.20;;;;;;;-2.31;59.91;99135.12;106031;1256;109874;-72
2024/01/13 01:23:47;;;;;;;22.00;11.00;;;;;;;-2.33;59.99;99130.47;106903;1254;96599;-73
2024/01/13 01:26:16;;;;;;;24.30;11.30;;;;;;;-2.33;60.53;99132.55;105727;1255;107574;-73
2024/01/13 01:28:44;;;;;;;21.60;10.80;;;;;;;-2.34;60.54;99126.16;105403;1258;96696;-72
2024/01/13 01:31:12;;;;;;;25.50;11.50;;;;;;;-2.32;60.70;99133.60;105584;1254;97556;-73
2024/01/13 01:33:40;;;;;;;28.80;11.10;;;;;;;-2.32;61.11;99128.37;105691;1251;109890;-74
2024/01/13 01:36:09;;;;;;;27.00;13.00;;;;;;;-2.32;61.21;99114.31;106237;1253;96594;-73
2024/01/13 01:38:37;;;;;;;29.30;12.20;;;;;;;-2.32;60.66;99107.88;106074;1253;107582;-72
2024/01/13 01:41:16;;;;;;;24.20;10.60;;;;;;;-2.30;60.78;99106.96;106812;1256;96590;-72
2024/01/13 01:43:46;;;;;;;21.90;11.10;;;;;;;-2.28;61.44;99117.02;105930;1256;97062;-72
2024/01/13 01:46:17;;;;;;;28.70;13.40;;;;;;;-2.29;61.49;99120.15;106882;1252;109887;-72
2024/01/13 01:48:46;;;;;;;17.80;9.50;;;;;;;-2.29;61.06;99114.45;105750;1254;96622;-72
2024/01/13 01:51:17;;;;;;;27.70;12.10;;;;;;;-2.30;61.60;99116.52;105496;1257;107684;-72
2024/01/13 01:53:47;;;;;;;26.90;12.20;;;;;;;-2.30;61.17;99107.32;107861;1253;96662;-72
2024/01/13 01:56:22;;;;;;;24.10;12.00;;;;;;;-2.30;60.70;99103.15;105454;1256;97880;-73
2024/01/13 01:58:52;;;;;;;26.90;11.80;;;;;;;-2.28;60.73;99104.86;105914;1253;109591;-73
2024/01/13 02:01:22;;;;;;;22.40;9.70;;;;;;;-2.28;60.72;99104.67;106765;1256;98037;-72
2024/01/13 02:03:52;;;;;;;27.10;12.60;;;;;;;-2.28;60.98;99100.69;106333;1253;107397;-72
2024/01/13 02:06:21;;;;;;;26.30;11.90;;;;;;;-2.27;60.85;99097.36;108562;1254;94452;-73
2024/01/13 02:08:49;;;;;;;29.10;12.70;;;;;;;-2.25;60.90;99099.41;107644;1255;96524;-73
2024/01/13 02:11:17;;;;;;;25.20;12.20;;;;;;;-2.24;61.81;99097.11;106710;1253;109886;-71
2024/01/13 02:13:49;;;;;;;28.30;12.40;;;;;;;-2.24;61.63;99092.43;105250;1261;96664;-71
2024/01/13 02:16:17;;;;;;;25.10;12.50;;;;;;;-2.22;62.04;99092.22;107804;1255;106913;-72
2024/01/13 02:18:44;;;;;;;28.90;13.10;;;;;;;-2.22;62.19;99091.16;106179;1256;96673;-73
2024/01/13 02:21:14;;;;;;;24.40;12.40;;;;;;;-2.21;62.27;99089.93;105588;1251;96630;-73
2024/01/13 02:23:44;;;;;;;26.00;12.60;;;;;;;-2.21;62.21;99086.45;105378;1254;109439;-73
2024/01/13 02:26:12;;;;;;;31.10;13.50;;;;;;;-2.21;62.38;99081.25;105453;1261;96588;-73
2024/01/13 02:28:40;;;;;;;33.40;15.30;;;;;;;-2.19;61.60;99081.23;106143;1253;107125;-73
2024/01/13 02:31:16;;;;;;;25.80;11.10;;;;;;;-2.19;62.15;99072.70;108530;1251;96382;-71
2024/01/13 02:33:52;;;;;;;31.70;13.50;;;;;;;-2.18;62.46;99071.46;105553;1266;96703;-72
2024/01/13 02:36:23;;;;;;;30.60;14.10;;;;;;;-2.20;62.32;99071.84;105477;1264;108409;-73
2024/01/13 02:38:52;;;;;;;30.80;13.90;;;;;;;-2.20;62.21;99069.94;107020;1253;96596;-72
2024/01/13 02:41:21;;;;;;;30.70;15.00;;;;;;;-2.19;61.96;99067.33;105699;1257;106052;-72
2024/01/13 02:43:49;;;;;;;25.50;11.40;;;;;;;-2.19;62.01;99068.34;105258;1266;96600;-73
2024/01/13 02:46:17;;;;;;;29.10;13.50;;;;;;;-2.17;62.52;99072.48;106402;1253;96593;-72
2024/01/13 02:48:48;;;;;;;30.50;15.50;;;;;;;-2.17;62.91;99067.63;107503;1253;110086;-72
2024/01/13 02:51:17;;;;;;;25.40;12.70;;;;;;;-2.19;62.62;99066.97;105692;1254;96587;-72
2024/01/13 02:53:46;;;;;;;29.30;15.10;;;;;;;-2.18;62.43;99072.34;105535;1266;107851;-72
2024/01/13 02:56:15;;;;;;;32.40;14.40;;;;;;;-2.18;62.99;99069.55;106004;1253;96610;-74
2024/01/13 02:58:43;;;;;;;31.60;14.50;;;;;;;-2.18;62.73;99071.98;106181;1251;96673;-72
2024/01/13 03:01:15;;;;;;;35.00;14.10;;;;;;;-2.18;62.82;99071.80;105644;1259;109454;-72
2024/01/13 03:03:49;;;;;;;33.80;14.60;;;;;;;-2.18;62.86;99073.71;105667;1256;98109;-72
2024/01/13 03:06:22;;;;;;;31.50;14.10;;;;;;;-2.17;63.60;99071.27;105537;1264;107501;-73
2024/01/13 03:08:53;;;;;;;33.70;14.10;;;;;;;-2.16;62.93;99071.95;106777;1250;96539;-71
2024/01/13 03:11:22;;;;;;;28.80;13.40;;;;;;;-2.16;63.10;99073.16;107380;1254;97106;-71
2024/01/13 03:13:54;;;;;;;28.80;13.70;;;;;;;-2.14;63.42;99079.89;106181;1253;109863;-73
2024/01/13 03:16:22;;;;;;;36.60;15.00;;;;;;;-2.13;63.37;99069.98;106371;1253;96622;-72
2024/01/13 03:18:50;;;;;;;24.40;12.20;;;;;;;-2.12;63.93;99060.92;105637;1273;107673;-71
2024/01/13 03:21:18;;;;;;;31.60;14.60;;;;;;;-2.14;63.78;99056.95;106373;1255;96857;-73
2024/01/13 03:23:47;;;;;;;29.80;14.40;;;;;;;-2.13;64.34;99061.63;106764;1254;97557;-72
2024/01/13 03:26:15;;;;;;;36.60;14.40;;;;;;;-2.13;64.18;99062.16;108534;1251;111428;-72
2024/01/13 03:28:43;;;;;;;35.20;14.30;;;;;;;-2.13;64.64;99061.63;108496;1251;94841;-72
2024/01/13 03:31:13;;;;;;;28.60;13.60;;;;;;;-2.12;64.50;99054.85;105460;1251;107298;-72
2024/01/13 03:33:45;;;;;;;31.80;13.90;;;;;;;-2.12;64.64;99054.84;105906;1256;96638;-72
2024/01/13 03:36:17;;;;;;;27.10;13.80;;;;;;;-2.12;64.18;99050.48;108476;1251;94487;-73
2024/01/13 03:38:46;;;;;;;31.20;13.60;;;;;;;-2.10;64.64;99051.15;108657;1251;110171;-73
2024/01/13 03:41:18;;;;;;;24.80;11.90;;;;;;;-2.09;64.43;99055.13;105647;1264;96625;-72
2024/01/13 03:43:46;;;;;;;28.10;12.80;;;;;;;-2.07;64.66;99054.91;106043;1253;108222;-72
2024/01/13 03:46:14;;;;;;;24.70;13.40;;;;;;;-2.07;65.11;99058.39;106725;1250;96619;-72
2024/01/13 03:48:42;;;;;;;29.90;13.40;;;;;;;-2.08;65.34;99057.89;107081;1251;96591;-72
2024/01/13 03:51:12;;;;;;;30.60;13.50;;;;;;;-2.08;65.15;99057.36;106562;1251;111221;-72
2024/01/13 03:53:40;;;;;;;28.70;12.80;;;;;;;-2.06;64.94;99059.06;106009;1251;96593;-72
2024/01/13 03:56:08;;;;;;;29.80;13.30;;;;;;;-2.03;64.97;99059.34;108248;1251;107682;-73
2024/01/13 03:58:38;;;;;;;23.30;12.30;;;;;;;-2.02;64.93;99054.80;105620;1251;96629;-72
2024/01/13 04:01:08;;;;;;;25.00;11.80;;;;;;;-2.02;64.52;99053.41;105613;1251;96516;-73
2024/01/13 04:03:36;;;;;;;26.50;11.40;;;;;;;-2.01;64.83;99048.16;105921;1253;109995;-73
2024/01/13 04:06:05;;;;;;;26.40;12.30;;;;;;;-2.00;64.64;99043.64;107385;1251;97290;-73
2024/01/13 04:08:34;;;;;;;27.10;11.50;;;;;;;-1.99;64.82;99042.39;106757;1251;107694;-73
2024/01/13 04:11:07;;;;;;;25.80;12.80;;;;;;;-1.98;64.63;99035.42;106792;1253;96689;-73
2024/01/13 04:13:36;;;;;;;26.40;11.00;;;;;;;-1.98;64.67;99033.68;105885;1253;96693;-73
2024/01/13 04:16:05;;;;;;;27.40;12.00;;;;;;;-1.97;64.48;99030.34;106146;1254;109354;-71
2024/01/13 04:18:33;;;;;;;26.20;12.80;;;;;;;-1.96;64.94;99031.02;105580;1264;96988;-71
2024/01/13 04:21:02;;;;;;;26.10;12.10;;;;;;;-1.96;64.74;99028.59;107090;1253;107640;-71
2024/01/13 04:23:47;;;;;;;20.70;10.00;;;;;;;-1.95;64.59;99025.61;106746;1251;96596;-72
2024/01/13 04:26:15;;;;;;;24.30;10.90;;;;;;;-1.93;64.75;99025.75;108563;1250;94833;-73
2024/01/13 04:28:43;;;;;;;28.70;11.10;;;;;;;-1.92;64.73;99028.00;105885;1251;109957;-72
2024/01/13 04:31:11;;;;;;;22.30;11.20;;;;;;;-1.91;64.81;99024.33;106017;1253;96941;-73
2024/01/13 04:33:39;;;;;;;21.70;11.00;;;;;;;-1.89;65.02;99031.23;105773;1253;107143;-72
2024/01/13 04:36:08;;;;;;;26.30;12.60;;;;;;;-1.89;64.71;99032.27;105526;1252;96628;-71
2024/01/13 04:38:36;;;;;;;27.60;13.30;;;;;;;-1.89;64.86;99035.58;108143;1251;96506;-72
2024/01/13 04:41:04;;;;;;;24.60;12.10;;;;;;;-1.89;64.42;99037.14;105867;1253;109979;-72
2024/01/13 04:43:33;;;;;;;30.20;13.10;;;;;;;-1.88;64.40;99033.30;105414;1254;96593;-73
2024/01/13 04:46:01;;;;;;;26.90;12.60;;;;;;;-1.87;64.95;99030.84;105516;1255;107452;-72
2024/01/13 04:48:30;;;;;;;31.50;14.50;;;;;;;-1.87;64.79;99037.45;105777;1251;97539;-72
2024/01/13 04:50:58;;;;;;;27.30;13.10;;;;;;;-1.88;64.87;99034.35;105876;1251;97932;-71
2024/01/13 04:53:26;;;;;;;28.60;13.70;;;;;;;-1.88;64.60;99034.87;106822;1251;110586;-73
2024/01/13 04:55:54;;;;;;;25.90;14.00;;;;;;;-1.88;64.82;99042.16;106231;1254;96575;-73
2024/01/13 04:58:22;;;;;;;30.10;14.00;;;;;;;-1.88;64.95;99034.34;106306;1257;108194;-72
2024/01/13 05:00:50;;;;;;;30.00;13.20;;;;;;;-1.88;64.74;99030.52;105760;1255;96664;-73
2024/01/13 05:03:18;;;;;;;32.20;14.20;;;;;;;-1.87;65.17;99033.80;105639;1251;96514;-72
2024/01/13 05:05:46;;;;;;;27.40;13.30;;;;;;;-1.87;65.00;99036.05;108524;1251;109899;-73
2024/01/13 05:08:14;;;;;;;28.80;14.30;;;;;;;-1.89;65.07;99039.57;105763;1257;97833;-72
2024/01/13 05:10:42;;;;;;;25.80;12.20;;;;;;;-1.87;65.07;99041.45;105896;1254;106944;-73
2024/01/13 05:13:09;;;;;;;28.40;14.10;;;;;;;-1.86;65.43;99039.85;105449;1254;97821;-72
2024/01/13 05:15:37;;;;;;;32.10;14.00;;;;;;;-1.87;65.79;99045.09;105475;1254;96645;-72
2024/01/13 05:18:05;;;;;;;28.30;13.50;;;;;;;-1.87;65.38;99045.61;105843;1251;109866;-72
2024/01/13 05:20:34;;;;;;;29.80;14.50;;;;;;;-1.88;65.46;99039.54;106464;1251;96610;-73
2024/01/13 05:23:04;;;;;;;24.60;12.50;;;;;;;-1.88;65.41;99038.67;105960;1253;106849;-72
2024/01/13 05:25:32;;;;;;;25.60;14.40;;;;;;;-1.87;65.69;99034.67;105456;1257;96641;-72
2024/01/13 05:28:02;;;;;;;28.50;13.20;;;;;;;-1.88;65.67;99031.21;105716;1253;96676;-72
2024/01/13 05:30:32;;;;;;;19.30;10.20;;;;;;;-1.88;65.59;99031.04;105230;1257;110653;-74
2024/01/13 05:33:01;;;;;;;25.40;12.30;;;;;;;-1.88;65.74;99024.77;108434;1251;95444;-72
2024/01/13 05:35:30;;;;;;;27.80;12.60;;;;;;;-1.88;66.05;99023.57;106856;1251;107661;-72
2024/01/13 05:37:57;;;;;;;23.80;11.30;;;;;;;-1.88;66.02;99025.13;106388;1251;96624;-72
2024/01/13 05:40:25;;;;;;;27.30;12.20;;;;;;;-1.88;66.19;99023.20;108597;1251;94385;-73
2024/01/13 05:42:53;;;;;;;22.60;11.10;;;;;;;-1.88;66.15;99020.24;105736;1253;110794;-72
2024/01/13 05:45:21;;;;;;;25.70;10.40;;;;;;;-1.86;66.19;99016.39;106572;1250;96632;-72
2024/01/13 05:47:49;;;;;;;21.40;11.20;;;;;;;-1.85;66.56;99014.11;105553;1254;107098;-72
2024/01/13 05:50:18;;;;;;;27.40;14.40;;;;;;;-1.86;66.10;99012.21;105618;1254;96692;-72
2024/01/13 05:52:45;;;;;;;26.80;13.10;;;;;;;-1.85;66.47;99011.67;107479;1250;96632;-71
2024/01/13 05:55:13;;;;;;;23.70;12.00;;;;;;;-1.85;66.82;99010.81;105419;1256;109259;-72
2024/01/13 05:57:41;;;;;;;20.40;10.40;;;;;;;-1.86;66.63;99010.65;107324;1251;97515;-72
2024/01/13 06:00:09;;;;;;;18.60;10.10;;;;;;;-1.86;67.01;99012.21;105449;1257;107560;-73
2024/01/13 06:02:37;;;;;;;19.30;9.50;;;;;;;-1.86;66.75;99013.45;105259;1267;96686;-72
2024/01/13 06:05:06;;;;;;;20.20;10.50;;;;;;;-1.87;66.87;99016.42;106715;1251;97521;-73
2024/01/13 06:07:35;;;;;;;21.80;10.10;;;;;;;-1.87;66.76;99017.45;108272;1250;109123;-73
2024/01/13 06:10:11;;;;;;;19.80;11.20;;;;;;;-1.86;67.10;99021.59;105837;1257;96677;-72
2024/01/13 06:12:39;;;;;;;19.00;10.30;;;;;;;-1.85;67.11;99021.05;105598;1257;106536;-72
2024/01/13 06:15:07;;;;;;;23.10;11.50;;;;;;;-1.86;67.27;99023.69;105404;1254;96699;-74
2024/01/13 06:17:35;;;;;;;18.50;9.60;;;;;;;-1.85;67.20;99026.11;106142;1250;96621;-72
2024/01/13 06:20:04;;;;;;;18.80;8.70;;;;;;;-1.85;67.20;99025.05;105934;1254;109902;-72
2024/01/13 06:22:32;;;;;;;19.70;9.40;;;;;;;-1.85;67.29;99024.52;105764;1254;96520;-72
2024/01/13 06:25:00;;;;;;;19.60;9.90;;;;;;;-1.84;67.12;99024.34;105968;1250;138081;-72
2024/01/13 06:27:28;;;;;;;19.00;9.70;;;;;;;-1.84;67.50;99019.46;107481;1250;96606;-72
2024/01/13 06:29:56;;;;;;;18.10;8.90;;;;;;;-1.82;67.29;99019.95;106187;1253;96524;-72
2024/01/13 06:32:25;;;;;;;19.00;9.80;;;;;;;-1.82;66.96;99023.42;106822;1256;109587;-74
2024/01/13 06:34:53;;;;;;;22.60;11.10;;;;;;;-1.81;67.43;99021.82;106503;1253;96603;-71
2024/01/13 06:37:20;;;;;;;21.20;9.90;;;;;;;-1.80;67.43;99023.89;105514;1254;107036;-72
2024/01/13 06:39:48;;;;;;;23.60;10.10;;;;;;;-1.78;67.15;99027.67;108415;1249;94948;-71
2024/01/13 06:42:16;;;;;;;17.80;9.50;;;;;;;-1.78;67.22;99027.69;105907;1251;96593;-72
2024/01/13 06:44:44;;;;;;;22.50;9.90;;;;;;;-1.76;67.58;99027.98;105689;1254;110486;-73
2024/01/13 06:47:12;;;;;;;22.80;11.20;;;;;;;-1.77;67.63;99031.13;106072;1256;98091;-72
2024/01/13 06:49:40;;;;;;;18.60;9.90;;;;;;;-1.75;67.45;99030.39;105457;1251;108191;-71
2024/01/13 06:52:09;;;;;;;20.10;9.80;;;;;;;-1.74;67.56;99034.37;106380;1249;97321;-71
2024/01/13 06:54:37;;;;;;;17.00;9.70;;;;;;;-1.74;67.57;99036.27;105929;1251;97598;-71
2024/01/13 06:57:05;;;;;;;19.90;9.70;;;;;;;-1.72;67.65;99041.29;105388;1254;109453;-73
2024/01/13 06:59:34;;;;;;;18.60;10.20;;;;;;;-1.72;67.91;99044.57;106405;1250;96615;-72
2024/01/13 07:02:02;;;;;;;24.30;12.10;;;;;;;-1.72;67.85;99047.01;108041;1250;107554;-75
2024/01/13 07:04:31;;;;;;;25.70;10.70;;;;;;;-1.69;67.60;99051.46;107334;1251;96627;-75
2024/01/13 07:06:59;;;;;;;28.70;12.80;;;;;;;-1.64;67.62;99051.36;105712;1254;96600;-75
2024/01/13 07:09:27;;;;;;;27.90;12.30;;;;;;;-1.61;67.59;99050.23;106312;1251;109736;-74
2024/01/13 07:11:55;;;;;;;28.80;12.20;;;;;;;-1.58;67.61;99052.95;105667;1257;97980;-75
2024/01/13 07:14:22;;;;;;;24.20;12.60;;;;;;;-1.58;67.77;99049.65;105849;1253;107202;-75
2024/01/13 07:16:50;;;;;;;21.50;11.20;;;;;;;-1.59;67.57;99051.41;106710;1250;96628;-76
2024/01/13 07:19:18;;;;;;;23.00;12.00;;;;;;;-1.57;67.62;99050.14;108541;1249;94982;-75
2024/01/13 07:21:46;;;;;;;22.50;11.20;;;;;;;-1.57;67.49;99050.30;108656;1250;109856;-76
2024/01/13 07:24:14;;;;;;;28.20;13.20;;;;;;;-1.57;67.63;99047.00;105579;1258;97538;-75
2024/01/13 07:26:45;;;;;;;25.80;11.80;;;;;;;-1.57;67.69;99050.84;108439;1250;107604;-76
2024/01/13 07:29:16;;;;;;;30.90;13.00;;;;;;;-1.56;67.62;99052.55;107608;1249;96620;-75
2024/01/13 07:31:44;;;;;;;26.70;14.00;;;;;;;-1.55;67.46;99060.53;105964;1254;97807;-75
2024/01/13 07:34:12;;;;;;;25.40;13.20;;;;;;;-1.56;67.99;99065.77;105991;1254;108796;-76
2024/01/13 07:36:40;;;;;;;27.70;14.00;;;;;;;-1.55;67.88;99066.97;105874;1254;97941;-75
2024/01/13 07:39:09;;;;;;;31.90;15.50;;;;;;;-1.54;67.78;99064.85;106213;1249;107648;-76
2024/01/13 07:41:38;;;;;;;29.20;15.10;;;;;;;-1.54;67.82;99067.47;105481;1250;96602;-75
2024/01/13 07:44:07;;;;;;;32.70;15.20;;;;;;;-1.53;67.83;99063.61;107698;1250;96501;-76
2024/01/13 07:46:41;;;;;;;35.00;17.50;;;;;;;-1.52;67.63;99063.59;108680;1249;109286;-76
2024/01/13 07:49:09;;;;;;;39.20;20.20;;;;;;;-1.50;67.63;99057.64;108512;1250;94789;-76
2024/01/13 07:51:37;;;;;;;36.90;18.00;;;;;;;-1.48;67.59;99059.50;105814;1250;108277;-77
2024/01/13 07:54:06;;;;;;;31.90;16.90;;;;;;;-1.45;67.49;99053.89;108426;1250;94853;-74
2024/01/13 07:56:35;;;;;;;38.60;17.40;;;;;;;-1.41;67.83;99057.27;106314;1249;96853;-78
2024/01/13 07:59:04;;;;;;;42.90;20.10;;;;;;;-1.42;67.98;99055.02;105576;1268;112293;-75
2024/01/13 08:01:32;;;;;;;42.90;22.40;;;;;;;-1.42;67.88;99051.70;105763;1254;97382;-78
2024/01/13 08:04:06;;;;;;;36.70;16.00;;;;;;;-1.41;67.89;99048.55;107805;1250;107492;-76
2024/01/13 08:06:35;;;;;;;34.20;16.30;;;;;;;-1.39;67.87;99048.84;106803;1251;96724;-77
2024/01/13 08:09:03;;;;;;;25.10;13.10;;;;;;;-1.39;67.77;99050.77;108618;1249;95431;-75
2024/01/13 08:11:32;;;;;;;36.40;18.80;;;;;;;-1.38;67.78;99051.26;108457;1250;109892;-75
2024/01/13 08:14:08;;;;;;;40.30;18.60;;;;;;;-1.37;67.80;99053.67;107281;1254;96674;-76
2024/01/13 08:16:36;;;;;;;35.60;16.30;;;;;;;-1.33;67.87;99052.55;107375;1250;108137;-79
2024/01/13 08:19:04;;;;;;;34.50;18.30;;;;;;;-1.29;67.94;99056.46;105809;1256;97411;-76
2024/01/13 08:21:32;;;;;;;29.10;15.10;;;;;;;-1.29;67.85;99055.39;106669;1253;96683;-76
2024/01/13 08:24:11;;;;;;;34.40;16.20;;;;;;;-1.27;67.73;99060.58;105441;1254;108573;-72
2024/01/13 08:26:39;;;;;;;;;;;;;;;-1.26;67.76;99060.21;105949;1250;96718;-74
2024/01/13 08:29:08;;;;;;;40.90;17.40;;;;;;;-1.27;67.79;99057.27;106829;1249;107849;-74
2024/01/13 08:31:36;;;;;;;35.00;15.30;;;;;;;-1.26;67.73;99056.55;106220;1254;96629;-74
2024/01/13 08:34:09;;;;;;;38.60;15.40;;;;;;;-1.24;67.53;99056.16;105953;1256;96604;-74
2024/01/13 08:36:43;;;;;;;29.20;13.50;;;;;;;-1.23;67.73;99054.23;108525;1250;109495;-74
2024/01/13 08:39:11;;;;;;;27.00;13.90;;;;;;;-1.23;68.23;99053.70;105951;1250;96513;-78
2024/01/13 08:41:39;;;;;;;35.70;16.50;;;;;;;-1.23;67.88;99058.91;105811;1256;108216;-75
2024/01/13 08:44:07;;;;;;;29.50;12.40;;;;;;;-1.22;67.97;99059.57;105633;1256;96693;-76
2024/01/13 08:46:35;;;;;;;28.60;12.00;;;;;;;-1.21;67.81;99059.36;108463;1250;94762;-75
2024/01/13 08:49:04;;;;;;;35.90;16.20;;;;;;;-1.19;67.87;99061.41;107208;1250;109849;-75
2024/01/13 08:51:33;;;;;;;27.60;13.30;;;;;;;-1.18;68.09;99063.99;105604;1251;97775;-75
2024/01/13 08:54:04;;;;;;;24.30;12.70;;;;;;;-1.17;68.16;99066.23;108055;1250;107514;-74
2024/01/13 08:56:36;;;;;;;29.40;14.80;;;;;;;-1.16;68.12;99071.80;107504;1253;96607;-78
2024/01/13 08:59:08;;;;;;;25.30;12.40;;;;;;;-1.15;68.05;99076.12;105787;1252;96616;-76
2024/01/13 09:01:37;;;;;;;26.20;13.00;;;;;;;-1.14;68.25;99079.23;105970;1249;110157;-75
2024/01/13 09:04:08;;;;;;;27.00;12.10;;;;;;;-1.13;68.27;99079.39;105928;1251;96521;-74
2024/01/13 09:06:40;;;;;;;23.90;12.30;;;;;;;-1.12;68.25;99076.91;106630;1256;107387;-77
2024/01/13 09:09:09;;;;;;;31.00;14.60;;;;;;;-1.14;68.10;99073.64;105820;1256;97928;-77
2024/01/13 09:11:38;;;;;;;22.40;10.70;;;;;;;-1.11;68.31;99077.06;105900;1249;96597;-75
2024/01/13 09:14:11;;;;;;;22.80;11.40;;;;;;;-1.10;68.03;99072.68;107071;1252;109512;-74
2024/01/13 09:16:43;;;;;;;24.80;12.70;;;;;;;-1.10;68.55;99070.60;105383;1257;96684;-73
2024/01/13 09:19:12;;;;;;;22.90;11.90;;;;;;;-1.11;68.48;99066.59;106294;1249;107776;-74
2024/01/13 09:21:41;;;;;;;25.90;14.10;;;;;;;-1.09;68.38;99063.96;105503;1256;96694;-74
2024/01/13 09:24:15;;;;;;;21.00;11.50;;;;;;;-1.07;68.39;99063.91;105970;1254;97919;-74
2024/01/13 09:26:45;;;;;;;26.00;13.90;;;;;;;-1.07;68.59;99063.91;105962;1249;109954;-76
2024/01/13 09:29:17;;;;;;;;;;;;;;;-1.06;68.46;99066.30;105613;1254;96562;-74
2024/01/13 09:31:49;;;;;;;28.60;13.40;;;;;;;-1.06;68.85;99059.18;108611;1249;106207;-75
2024/01/13 09:34:19;;;;;;;27.40;12.90;;;;;;;-1.06;68.49;99057.95;106919;1249;96616;-74
2024/01/13 09:36:48;;;;;;;23.40;11.70;;;;;;;-1.02;68.55;99058.55;106320;1253;96590;-73
2024/01/13 09:39:20;;;;;;;27.00;14.40;;;;;;;-0.99;68.61;99052.20;105600;1254;109408;-73
2024/01/13 09:41:53;;;;;;;29.30;13.70;;;;;;;-0.95;68.37;99047.06;108238;1249;95454;-73
2024/01/13 09:44:29;;;;;;;28.70;12.60;;;;;;;-0.91;68.50;99040.70;106588;1251;107528;-74
2024/01/13 09:46:59;;;;;;;25.90;12.80;;;;;;;-0.88;68.94;99035.04;106773;1250;96564;-74
2024/01/13 09:49:30;;;;;;;40.90;18.70;;;;;;;-0.87;68.73;99026.68;105663;1251;96596;-73
2024/01/13 09:52:05;;;;;;;29.10;14.60;;;;;;;-0.85;68.68;99023.13;107698;1252;108420;-75
2024/01/13 09:54:35;;;;;;;22.70;12.20;;;;;;;-0.81;68.50;99021.29;107042;1252;96653;-75
2024/01/13 09:57:05;;;;;;;28.80;13.30;;;;;;;-0.78;68.78;99013.73;105548;1251;108303;-75
2024/01/13 09:59:33;;;;;;;25.20;13.20;;;;;;;-0.76;68.67;99013.30;106190;1257;96622;-75
2024/01/13 10:02:02;;;;;;;29.00;12.70;;;;;;;-0.73;68.70;99007.49;108451;1250;94583;-74
2024/01/13 10:04:40;;;;;;;24.90;12.90;;;;;;;-0.71;68.83;99006.21;106305;1253;110755;-74
2024/01/13 10:07:09;;;;;;;30.20;15.20;;;;;;;-0.70;68.70;99007.05;105839;1253;96616;-76
2024/01/13 10:09:40;;;;;;;44.50;17.70;;;;;;;-0.68;68.83;99004.39;107837;1249;107210;-75
2024/01/13 10:12:10;;;;;;;43.20;16.90;;;;;;;-0.66;68.50;99006.41;106843;1250;96610;-75
2024/01/13 10:14:42;;;;;;;44.40;20.10;;;;;;;-0.63;68.70;98999.02;106923;1250;97546;-73
2024/01/13 10:17:12;;;;;;;44.40;20.50;;;;;;;-0.63;68.49;99001.28;106157;1253;109158;-73
2024/01/13 10:19:42;;;;;;;37.70;16.50;;;;;;;-0.63;68.81;98996.94;105998;1252;96670;-75
2024/01/13 10:22:15;;;;;;;39.20;17.30;;;;;;;-0.66;68.68;98991.08;105679;1256;107590;-73
2024/01/13 10:24:44;;;;;;;40.30;18.40;;;;;;;-0.64;69.03;98984.41;106142;1250;96593;-74
2024/01/13 10:27:13;;;;;;;36.90;16.00;;;;;;;-0.63;69.04;98987.16;106060;1250;96517;-72
2024/01/13 10:29:42;;;;;;;36.10;16.80;;;;;;;-0.63;68.83;98983.00;107708;1249;109582;-75
2024/01/13 10:32:12;;;;;;;31.60;14.00;;;;;;;-0.61;68.88;98980.14;107518;1249;96581;-75
2024/01/13 10:34:48;;;;;;;24.90;11.70;;;;;;;-0.62;68.94;98975.81;105960;1254;107310;-73
2024/01/13 10:37:17;;;;;;;38.20;15.40;;;;;;;-0.62;69.20;98967.81;105484;1253;96596;-73
2024/01/13 10:39:45;;;;;;;33.70;15.30;;;;;;;-0.61;68.91;98968.46;105716;1251;97843;-74
2024/01/13 10:42:15;;;;;;;35.20;15.90;;;;;;;-0.58;68.88;98962.48;105723;1254;109853;-73
2024/01/13 10:44:58;;;;;;;29.80;13.00;;;;;;;-0.57;68.93;98962.09;105591;1266;96540;-75
2024/01/13 10:47:31;;;;;;;32.30;14.60;;;;;;;-0.55;68.80;98959.08;107985;1251;108113;-74
2024/01/13 10:50:00;;;;;;;26.30;12.20;;;;;;;-0.54;69.09;98959.22;105709;1255;97937;-74
2024/01/13 10:52:53;;;;;;;37.00;15.20;;;;;;;-0.52;68.73;98954.48;105719;1255;96589;-74
2024/01/13 10:55:22;;;;;;;29.10;13.30;;;;;;;-0.49;69.20;98958.58;105899;1254;109506;-74
2024/01/13 10:57:52;;;;;;;40.90;16.70;;;;;;;-0.49;68.88;98959.60;107321;1250;96517;-75
2024/01/13 11:03:36;;;;;;;26.40;11.90;;;;;;;-0.47;69.09;98960.23;102240;1308;636554;-74
2024/01/13 11:06:04;;;;;;;31.90;14.60;;;;;;;-0.49;69.34;98963.61;104998;1266;94392;-74
2024/01/13 11:08:36;;;;;;;31.70;15.00;;;;;;;-0.50;69.21;98954.24;105125;1256;94239;-75
2024/01/13 11:11:07;;;;;;;27.30;13.00;;;;;;;-0.50;68.86;98947.10;105320;1259;107279;-74
2024/01/13 11:13:43;;;;;;;26.50;13.60;;;;;;;-0.47;68.91;98947.01;105480;1256;95351;-74
2024/01/13 11:16:14;;;;;;;32.60;14.10;;;;;;;-0.43;69.12;98937.50;105601;1254;130076;-71
2024/01/13 11:18:46;;;;;;;28.30;13.80;;;;;;;-0.44;69.15;98934.37;105130;1254;94285;-69
2024/01/13 11:21:19;;;;;;;28.00;12.90;;;;;;;-0.44;68.95;98927.41;105532;1260;94318;-70